Time;durP1;ratioP1;P1;durP2;ratioP2;P2;SDS_P1;SDS_P2;PMS_P1;PMS_P2;Temp;Humidity;BMP_temperature;BMP_pressure;BME280_temperature;BME280_humidity;BME280_pressure;Samples;Min_cycle;Max_cycle;Signal;HPM_P1;HPM_P2
2023/01/11 00:01:03;;;;;;;21.00;4.13;;;;;;;;;;4969062;28;20145;-71
2023/01/11 00:03:30;;;;;;;13.48;4.00;;;;;;;;;;4968099;28;20038;-71
2023/01/11 00:05:58;;;;;;;24.33;3.53;;;;;;;;;;4966955;28;20062;-70
2023/01/11 00:08:28;;;;;;;15.73;3.70;;;;;;;;;;4967361;28;20116;-70
2023/01/11 00:10:55;;;;;;;11.40;2.88;;;;;;;;;;4966516;28;20050;-70
2023/01/11 00:13:22;;;;;;;10.07;3.45;;;;;;;;;;4966101;28;20102;-70
2023/01/11 00:15:48;;;;;;;7.20;2.15;;;;;;;;;;4928785;28;20054;-71
2023/01/11 00:18:15;;;;;;;11.88;2.90;;;;;;;;;;4912030;29;20036;-70
2023/01/11 00:20:42;;;;;;;13.02;2.72;;;;;;;;;;4925918;28;20043;-70
2023/01/11 00:23:09;;;;;;;10.82;2.30;;;;;;;;;;4911352;29;20043;-70
2023/01/11 00:25:36;;;;;;;13.45;2.70;;;;;;;;;;4936417;28;20047;-71
2023/01/11 00:28:02;;;;;;;15.05;1.95;;;;;;;;;;4945080;28;20155;-70
2023/01/11 00:30:29;;;;;;;9.88;2.55;;;;;;;;;;4959552;28;20137;-70
2023/01/11 00:32:57;;;;;;;9.98;2.90;;;;;;;;;;4954634;28;20045;-71
2023/01/11 00:35:24;;;;;;;10.05;2.88;;;;;;;;;;4966349;28;20054;-70
2023/01/11 00:37:52;;;;;;;10.23;2.58;;;;;;;;;;4958691;28;20652;-70
2023/01/11 00:40:19;;;;;;;10.98;2.60;;;;;;;;;;4963442;28;20047;-71
2023/01/11 00:48:15;;;;;;;11.95;2.35;;;;;;;;;;4987344;28;20098;-73
2023/01/11 00:50:41;;;;;;;7.90;2.10;;;;;;;;;;4990108;28;20075;-71
2023/01/11 00:53:09;;;;;;;7.53;2.50;;;;;;;;;;5014182;28;20128;-71
2023/01/11 00:55:35;;;;;;;12.55;2.30;;;;;;;;;;5029667;28;20458;-71
2023/01/11 00:58:02;;;;;;;12.02;2.22;;;;;;;;;;5030792;28;20047;-72
2023/01/11 01:00:29;;;;;;;13.25;2.90;;;;;;;;;;5027801;28;20041;-70
2023/01/11 01:02:56;;;;;;;12.30;2.45;;;;;;;;;;5020627;28;20045;-72
2023/01/11 01:05:23;;;;;;;19.17;3.38;;;;;;;;;;5016289;28;20040;-71
2023/01/11 01:07:49;;;;;;;11.10;2.38;;;;;;;;;;5028674;28;20053;-72
2023/01/11 01:10:17;;;;;;;8.35;2.42;;;;;;;;;;5027210;28;20042;-72
2023/01/11 01:15:29;;;;;;;13.07;3.83;;;;;;;;;;5027176;28;20040;-71
2023/01/11 01:17:56;;;;;;;8.70;2.75;;;;;;;;;;5030117;28;20045;-71
2023/01/11 01:20:23;;;;;;;20.10;3.55;;;;;;;;;;5029005;28;21801;-71
2023/01/11 01:22:50;;;;;;;15.38;2.63;;;;;;;;;;4993174;28;20163;-70
2023/01/11 01:25:17;;;;;;;23.23;3.38;;;;;;;;;;5022823;28;20175;-70
2023/01/11 01:27:43;;;;;;;13.23;3.03;;;;;;;;;;5028535;28;20041;-71
2023/01/11 01:30:11;;;;;;;17.33;3.05;;;;;;;;;;5005563;28;20360;-69
2023/01/11 01:32:38;;;;;;;14.85;2.80;;;;;;;;;;5026132;28;20569;-71
2023/01/11 01:35:04;;;;;;;26.08;3.58;;;;;;;;;;5028759;28;20532;-70
2023/01/11 01:37:31;;;;;;;12.90;3.10;;;;;;;;;;5028259;28;20048;-72
2023/01/11 01:39:58;;;;;;;13.52;2.95;;;;;;;;;;5028035;28;20041;-70
2023/01/11 01:42:25;;;;;;;12.68;3.08;;;;;;;;;;5025760;28;20049;-71
2023/01/11 01:45:05;;;;;;;13.07;3.22;;;;;;;;;;5028757;28;20370;-71
2023/01/11 01:47:46;;;;;;;13.43;3.10;;;;;;;;;;5026746;28;20705;-72
2023/01/11 01:50:15;;;;;;;21.85;3.00;;;;;;;;;;5026505;28;20420;-71
2023/01/11 01:52:44;;;;;;;11.60;2.85;;;;;;;;;;5027064;28;20520;-70
2023/01/11 01:55:12;;;;;;;18.95;2.40;;;;;;;;;;5009911;28;20040;-71
2023/01/11 01:57:41;;;;;;;11.75;2.70;;;;;;;;;;5026916;28;20103;-71
2023/01/11 02:00:09;;;;;;;13.60;2.83;;;;;;;;;;5026877;28;20890;-73
2023/01/11 02:02:37;;;;;;;18.25;3.08;;;;;;;;;;5026952;28;20061;-70
2023/01/11 02:05:04;;;;;;;13.20;3.08;;;;;;;;;;5026920;28;20099;-72
2023/01/11 02:07:32;;;;;;;18.35;3.55;;;;;;;;;;5024512;28;20045;-72
2023/01/11 02:10:04;;;;;;;9.75;2.97;;;;;;;;;;5026657;28;20033;-71
2023/01/11 02:12:32;;;;;;;15.45;3.97;;;;;;;;;;5024342;28;20572;-71
2023/01/11 02:15:00;;;;;;;16.05;4.15;;;;;;;;;;5024271;28;20569;-68
2023/01/11 02:17:26;;;;;;;18.13;5.07;;;;;;;;;;5016254;28;20068;-69
2023/01/11 02:20:18;;;;;;;15.63;4.32;;;;;;;;;;5023082;28;20037;-71
2023/01/11 02:22:59;;;;;;;15.55;3.90;;;;;;;;;;5026371;28;20069;-69
2023/01/11 02:25:26;;;;;;;15.70;4.03;;;;;;;;;;5026159;28;20049;-69
2023/01/11 02:27:53;;;;;;;17.30;4.32;;;;;;;;;;5028332;28;20222;-69
2023/01/11 02:30:25;;;;;;;12.10;4.00;;;;;;;;;;5027653;28;20140;-67
2023/01/11 02:32:58;;;;;;;23.85;5.68;;;;;;;;;;5024373;28;20508;-68
2023/01/11 02:35:35;;;;;;;18.70;5.25;;;;;;;;;;5025415;28;20338;-68
2023/01/11 02:38:08;;;;;;;18.45;4.85;;;;;;;;;;5008343;28;20033;-69
2023/01/11 02:40:54;;;;;;;22.90;4.32;;;;;;;;;;5029999;28;20489;-72
2023/01/11 02:46:18;;;;;;;13.15;5.20;;;;;;;;;;5026898;28;20347;-70
2023/01/11 02:48:53;;;;;;;22.05;6.40;;;;;;;;;;5026707;28;20405;-71
2023/01/11 02:51:40;;;;;;;31.58;10.00;;;;;;;;;;5003230;28;20497;-70
2023/01/11 02:54:08;;;;;;;55.60;21.98;;;;;;;;;;5007460;28;20421;-71
2023/01/11 02:56:40;;;;;;;45.20;15.90;;;;;;;;;;5025977;28;20041;-71
2023/01/11 02:59:09;;;;;;;38.42;12.18;;;;;;;;;;5026284;28;21751;-70
2023/01/11 03:01:44;;;;;;;34.88;10.35;;;;;;;;;;5025741;28;20041;-71
2023/01/11 03:04:22;;;;;;;26.63;8.60;;;;;;;;;;5025931;28;20041;-70
2023/01/11 03:06:50;;;;;;;34.60;8.00;;;;;;;;;;5025468;28;20120;-71
2023/01/11 03:09:25;;;;;;;21.15;7.10;;;;;;;;;;5026128;28;20060;-70
2023/01/11 03:15:09;;;;;;;22.45;4.88;;;;;;;;;;5008292;28;20111;-66
2023/01/11 03:17:39;;;;;;;11.43;3.38;;;;;;;;;;5024156;28;20094;-71
2023/01/11 03:20:11;;;;;;;14.10;4.35;;;;;;;;;;5023817;28;20056;-71
2023/01/11 03:22:38;;;;;;;8.00;3.77;;;;;;;;;;5023382;28;20091;-71
2023/01/11 03:25:14;;;;;;;12.50;3.63;;;;;;;;;;5026787;28;20287;-71
2023/01/11 03:27:49;;;;;;;17.27;4.55;;;;;;;;;;5024335;28;20060;-70
2023/01/11 03:30:34;;;;;;;19.90;4.78;;;;;;;;;;5024032;28;20044;-71
2023/01/11 03:33:01;;;;;;;14.48;4.43;;;;;;;;;;5025169;28;20136;-72
2023/01/11 03:35:35;;;;;;;12.23;3.90;;;;;;;;;;5017283;28;20120;-70
2023/01/11 03:38:04;;;;;;;20.17;3.88;;;;;;;;;;5026381;28;20044;-72
2023/01/11 03:40:38;;;;;;;11.88;3.63;;;;;;;;;;5025141;28;20957;-71
2023/01/11 03:43:10;;;;;;;;;;;;;;;;;;5025100;28;20045;-73
2023/01/11 03:45:40;;;;;;;15.98;2.88;;;;;;;;;;5024087;28;19921;-71
2023/01/11 03:48:11;;;;;;;10.52;2.60;;;;;;;;;;5024807;28;20091;-72
2023/01/11 03:50:37;;;;;;;17.88;3.28;;;;;;;;;;5024021;28;20054;-72
2023/01/11 03:53:06;;;;;;;25.70;3.67;;;;;;;;;;5025222;28;20048;-73
2023/01/11 03:55:35;;;;;;;11.02;3.22;;;;;;;;;;5024823;28;20053;-72
2023/01/11 03:58:02;;;;;;;13.23;3.03;;;;;;;;;;5026148;28;20041;-71
2023/01/11 04:00:30;;;;;;;12.98;3.25;;;;;;;;;;5024781;28;20048;-72
2023/01/11 04:02:59;;;;;;;15.65;3.60;;;;;;;;;;5024318;28;20052;-71
2023/01/11 04:05:26;;;;;;;19.52;3.42;;;;;;;;;;5024574;28;20064;-72
2023/01/11 04:07:53;;;;;;;12.85;3.30;;;;;;;;;;5019273;28;20038;-70
2023/01/11 04:10:20;;;;;;;7.30;2.80;;;;;;;;;;5000807;28;20508;-72
2023/01/11 04:12:47;;;;;;;16.40;3.60;;;;;;;;;;5024276;28;20524;-71
2023/01/11 04:15:14;;;;;;;11.15;3.00;;;;;;;;;;5025810;28;20052;-68
2023/01/11 04:17:41;;;;;;;18.05;3.22;;;;;;;;;;5023484;28;20047;-74
2023/01/11 04:20:12;;;;;;;20.25;3.45;;;;;;;;;;4972646;28;20295;-69
2023/01/11 04:22:38;;;;;;;5.65;2.60;;;;;;;;;;4972015;28;20498;-71
2023/01/11 04:25:05;;;;;;;20.70;3.83;;;;;;;;;;4972067;28;20459;-71
2023/01/11 04:27:32;;;;;;;15.63;2.72;;;;;;;;;;4972183;28;20882;-70
2023/01/11 04:29:58;;;;;;;11.05;3.45;;;;;;;;;;4973115;28;20034;-69
2023/01/11 04:32:25;;;;;;;13.02;2.92;;;;;;;;;;4970959;28;20092;-70
2023/01/11 04:34:52;;;;;;;9.50;2.67;;;;;;;;;;4956325;28;20038;-70
2023/01/11 04:37:18;;;;;;;11.25;3.10;;;;;;;;;;4973669;28;20051;-71
2023/01/11 04:39:45;;;;;;;18.08;3.47;;;;;;;;;;4974012;28;20104;-69
2023/01/11 04:42:18;;;;;;;14.38;3.10;;;;;;;;;;4976872;28;20128;-69
2023/01/11 04:44:47;;;;;;;18.33;3.80;;;;;;;;;;4976550;28;20175;-71
2023/01/11 04:47:14;;;;;;;10.90;3.10;;;;;;;;;;4977109;28;20038;-70
2023/01/11 04:49:42;;;;;;;17.35;3.40;;;;;;;;;;4976099;28;20046;-71
2023/01/11 04:52:10;;;;;;;16.60;2.78;;;;;;;;;;5022237;28;20071;-69
2023/01/11 04:54:37;;;;;;;10.88;3.63;;;;;;;;;;5028103;28;20128;-67
2023/01/11 04:57:03;;;;;;;13.13;3.63;;;;;;;;;;5026897;28;20061;-69
2023/01/11 04:59:30;;;;;;;15.73;3.28;;;;;;;;;;5028214;28;20143;-71
2023/01/11 05:01:57;;;;;;;13.32;3.25;;;;;;;;;;5027026;28;20043;-69
2023/01/11 05:04:24;;;;;;;19.58;3.88;;;;;;;;;;5027938;28;20060;-70
2023/01/11 05:06:51;;;;;;;15.02;3.10;;;;;;;;;;5028024;28;20057;-70
2023/01/11 05:09:18;;;;;;;18.77;3.10;;;;;;;;;;5028140;28;20037;-69
2023/01/11 05:11:45;;;;;;;15.25;3.92;;;;;;;;;;5025709;28;20052;-68
2023/01/11 05:14:13;;;;;;;14.38;3.00;;;;;;;;;;5028014;28;20038;-70
2023/01/11 05:16:40;;;;;;;22.77;3.83;;;;;;;;;;5026106;28;20704;-69
2023/01/11 05:19:06;;;;;;;9.75;2.88;;;;;;;;;;5028249;28;20107;-69
2023/01/11 05:21:34;;;;;;;19.60;3.78;;;;;;;;;;5025323;28;20554;-68
2023/01/11 05:24:02;;;;;;;20.75;2.85;;;;;;;;;;5026413;28;20430;-69
2023/01/11 05:26:30;;;;;;;20.67;3.78;;;;;;;;;;5026098;28;20033;-69
2023/01/11 05:28:58;;;;;;;18.85;4.13;;;;;;;;;;5030392;28;20061;-69
2023/01/11 05:31:26;;;;;;;22.30;3.85;;;;;;;;;;5027624;28;20053;-70
2023/01/11 05:33:53;;;;;;;13.80;3.15;;;;;;;;;;5027674;28;20398;-69
2023/01/11 05:36:20;;;;;;;7.70;2.90;;;;;;;;;;5028302;28;20037;-69
2023/01/11 05:38:47;;;;;;;8.98;2.70;;;;;;;;;;5025836;28;20770;-69
2023/01/11 05:41:14;;;;;;;17.17;3.10;;;;;;;;;;5026891;28;20041;-70
2023/01/11 05:46:28;;;;;;;16.77;2.85;;;;;;;;;;5028421;28;20040;-71
2023/01/11 05:48:55;;;;;;;13.55;2.83;;;;;;;;;;5021763;28;20052;-69
2023/01/11 05:51:22;;;;;;;8.30;2.25;;;;;;;;;;5026788;28;20045;-70
2023/01/11 05:53:49;;;;;;;9.98;3.05;;;;;;;;;;5027065;28;20079;-69
2023/01/11 05:56:16;;;;;;;18.77;2.78;;;;;;;;;;5006259;28;20036;-67
2023/01/11 05:58:42;;;;;;;11.20;2.05;;;;;;;;;;5015943;28;20045;-70
2023/01/11 06:01:12;;;;;;;14.38;2.72;;;;;;;;;;5022535;28;20088;-70
2023/01/11 06:03:39;;;;;;;10.02;2.88;;;;;;;;;;5023675;28;20041;-69
2023/01/11 06:06:05;;;;;;;8.10;2.75;;;;;;;;;;5027709;28;20509;-72
2023/01/11 06:08:32;;;;;;;5.57;2.53;;;;;;;;;;5026020;28;20051;-71
2023/01/11 06:10:59;;;;;;;16.73;2.53;;;;;;;;;;5030406;28;20111;-69
2023/01/11 06:13:26;;;;;;;12.23;2.42;;;;;;;;;;5027080;28;20033;-71
2023/01/11 06:16:01;;;;;;;11.48;2.58;;;;;;;;;;5027082;28;20171;-71
2023/01/11 06:18:50;;;;;;;9.00;2.00;;;;;;;;;;5025536;28;20077;-72
2023/01/11 06:21:17;;;;;;;9.82;1.90;;;;;;;;;;4985050;28;20046;-70
2023/01/11 06:23:45;;;;;;;9.48;2.17;;;;;;;;;;4966571;28;20411;-70
2023/01/11 06:26:14;;;;;;;12.55;2.28;;;;;;;;;;4984514;28;20181;-70
2023/01/11 06:28:40;;;;;;;12.68;2.03;;;;;;;;;;4983571;28;20112;-69
2023/01/11 06:31:08;;;;;;;9.02;2.22;;;;;;;;;;4967562;28;20113;-70
2023/01/11 06:33:34;;;;;;;8.00;2.15;;;;;;;;;;4982728;28;20079;-70
2023/01/11 06:36:11;;;;;;;8.25;2.03;;;;;;;;;;4984199;28;20042;-70
2023/01/11 06:38:38;;;;;;;12.35;1.67;;;;;;;;;;4969643;28;20045;-70
2023/01/11 06:41:07;;;;;;;4.00;1.77;;;;;;;;;;4983064;28;20038;-70
2023/01/11 06:43:33;;;;;;;13.77;2.42;;;;;;;;;;4981559;28;20138;-69
2023/01/11 06:46:00;;;;;;;6.75;2.30;;;;;;;;;;4983371;28;20042;-69
2023/01/11 06:48:27;;;;;;;10.90;2.13;;;;;;;;;;4977440;28;20034;-70
2023/01/11 06:50:55;;;;;;;8.18;1.77;;;;;;;;;;4983632;28;20149;-70
2023/01/11 06:53:22;;;;;;;13.65;2.05;;;;;;;;;;5020002;28;20626;-70
2023/01/11 06:55:50;;;;;;;11.20;2.15;;;;;;;;;;5024614;28;20497;-70
2023/01/11 06:58:17;;;;;;;11.90;2.53;;;;;;;;;;5025678;28;20045;-70
2023/01/11 07:00:43;;;;;;;5.32;1.80;;;;;;;;;;5007377;28;20037;-71
2023/01/11 07:03:14;;;;;;;11.48;1.83;;;;;;;;;;5019416;28;20102;-71
2023/01/11 07:05:42;;;;;;;6.10;1.50;;;;;;;;;;5005559;28;20082;-68
2023/01/11 07:08:09;;;;;;;7.38;1.92;;;;;;;;;;5025272;28;20196;-71
2023/01/11 07:10:36;;;;;;;9.30;1.98;;;;;;;;;;5025016;28;20564;-70
2023/01/11 07:13:02;;;;;;;9.07;1.75;;;;;;;;;;5025444;28;20136;-70
2023/01/11 07:15:29;;;;;;;19.70;1.52;;;;;;;;;;5018299;28;20037;-69
2023/01/11 07:17:57;;;;;;;9.20;1.50;;;;;;;;;;5027280;28;20056;-68
2023/01/11 07:20:24;;;;;;;5.43;1.13;;;;;;;;;;5023225;28;20847;-68
2023/01/11 07:22:51;;;;;;;6.05;1.10;;;;;;;;;;5019777;28;20555;-70
2023/01/11 07:25:19;;;;;;;4.30;1.40;;;;;;;;;;5018902;28;20110;-70
2023/01/11 07:27:45;;;;;;;7.15;0.70;;;;;;;;;;5024164;28;20438;-70
2023/01/11 07:30:12;;;;;;;1.50;0.70;;;;;;;;;;5025964;28;20050;-69
2023/01/11 07:32:39;;;;;;;14.75;0.80;;;;;;;;;;5025033;28;20053;-69
2023/01/11 07:35:06;;;;;;;5.03;0.88;;;;;;;;;;4998271;28;20048;-70
2023/01/11 07:37:34;;;;;;;0.88;0.55;;;;;;;;;;5008553;28;20067;-70
2023/01/11 07:40:00;;;;;;;1.80;0.70;;;;;;;;;;5025541;28;20405;-70
2023/01/11 07:45:12;;;;;;;3.50;1.00;;;;;;;;;;5026012;28;20477;-69
2023/01/11 07:47:38;;;;;;;4.78;1.42;;;;;;;;;;5025460;28;20048;-70
2023/01/11 07:50:17;;;;;;;3.88;0.98;;;;;;;;;;5025479;28;20098;-70
2023/01/11 07:52:49;;;;;;;2.67;1.00;;;;;;;;;;5001421;28;20112;-70
2023/01/11 07:55:31;;;;;;;5.95;1.10;;;;;;;;;;4999505;28;20065;-70
2023/01/11 07:58:02;;;;;;;4.47;1.40;;;;;;;;;;5001198;28;20070;-69
2023/01/11 08:00:32;;;;;;;2.83;1.08;;;;;;;;;;5001482;28;20065;-69
2023/01/11 08:03:00;;;;;;;3.13;1.10;;;;;;;;;;4950506;28;20062;-69
2023/01/11 08:05:39;;;;;;;4.93;1.20;;;;;;;;;;4950911;28;20046;-69
2023/01/11 08:08:06;;;;;;;8.48;1.65;;;;;;;;;;4946079;28;20054;-70
2023/01/11 08:10:36;;;;;;;4.90;1.40;;;;;;;;;;4949224;28;20046;-69
2023/01/11 08:15:47;;;;;;;5.05;1.27;;;;;;;;;;4955430;28;20103;-70
2023/01/11 08:18:15;;;;;;;2.60;0.85;;;;;;;;;;4952055;28;20047;-71
2023/01/11 08:20:42;;;;;;;7.22;1.02;;;;;;;;;;4952979;28;20047;-70
2023/01/11 08:23:10;;;;;;;2.90;0.90;;;;;;;;;;4957274;28;20122;-70
2023/01/11 08:25:37;;;;;;;11.93;1.50;;;;;;;;;;4953675;28;20544;-70
2023/01/11 08:28:05;;;;;;;5.47;1.23;;;;;;;;;;4957114;28;20039;-70
2023/01/11 08:30:32;;;;;;;5.47;1.38;;;;;;;;;;4956739;28;20066;-70
2023/01/11 08:33:00;;;;;;;6.03;1.13;;;;;;;;;;4958139;28;20546;-70
2023/01/11 08:35:27;;;;;;;6.05;1.27;;;;;;;;;;4948621;28;21066;-70
2023/01/11 08:37:55;;;;;;;3.00;1.13;;;;;;;;;;4956873;28;20562;-71
2023/01/11 08:40:24;;;;;;;3.20;1.27;;;;;;;;;;4953500;28;20204;-70
2023/01/11 08:42:55;;;;;;;5.38;1.63;;;;;;;;;;4956759;28;20053;-69
2023/01/11 08:45:22;;;;;;;3.38;1.20;;;;;;;;;;4958878;28;20115;-69
2023/01/11 08:47:50;;;;;;;2.80;1.10;;;;;;;;;;4961582;28;20062;-70
2023/01/11 08:50:17;;;;;;;3.30;1.00;;;;;;;;;;4959815;28;20031;-69
2023/01/11 08:52:44;;;;;;;8.98;1.48;;;;;;;;;;4990971;28;20045;-69
2023/01/11 08:55:13;;;;;;;4.20;1.20;;;;;;;;;;5033658;28;20080;-69
2023/01/11 08:57:39;;;;;;;4.95;1.10;;;;;;;;;;5029635;28;20048;-70
2023/01/11 09:00:07;;;;;;;2.90;0.98;;;;;;;;;;5026944;28;20555;-70
2023/01/11 09:02:34;;;;;;;7.97;1.50;;;;;;;;;;5027051;28;20498;-71
2023/01/11 09:05:00;;;;;;;4.05;1.20;;;;;;;;;;5031846;28;20128;-71
2023/01/11 09:07:27;;;;;;;6.90;1.20;;;;;;;;;;5030413;28;20033;-71
2023/01/11 09:09:53;;;;;;;2.72;1.00;;;;;;;;;;5012790;28;20037;-70
2023/01/11 09:12:20;;;;;;;4.10;1.30;;;;;;;;;;5025501;28;20084;-71
2023/01/11 09:14:47;;;;;;;8.60;1.40;;;;;;;;;;5012531;28;20532;-71
2023/01/11 09:17:13;;;;;;;7.10;1.67;;;;;;;;;;5032659;28;20103;-71
2023/01/11 09:19:40;;;;;;;2.42;0.85;;;;;;;;;;5032725;28;20041;-70
2023/01/11 09:22:07;;;;;;;8.38;1.50;;;;;;;;;;5033390;28;20049;-70
2023/01/11 09:24:33;;;;;;;3.40;1.30;;;;;;;;;;5034216;28;20273;-71
2023/01/11 09:27:00;;;;;;;2.80;0.90;;;;;;;;;;5029998;28;20037;-70
2023/01/11 09:29:27;;;;;;;2.38;0.93;;;;;;;;;;5034473;28;20108;-69
2023/01/11 09:31:54;;;;;;;2.92;1.02;;;;;;;;;;5036132;28;20137;-69
2023/01/11 09:34:20;;;;;;;4.07;1.05;;;;;;;;;;5027420;28;20063;-69
2023/01/11 09:36:47;;;;;;;8.30;1.40;;;;;;;;;;5036750;28;20061;-70
2023/01/11 09:39:17;;;;;;;2.35;0.95;;;;;;;;;;5035990;28;20045;-69
2023/01/11 09:41:55;;;;;;;7.68;1.02;;;;;;;;;;5032065;28;20064;-69
2023/01/11 09:44:25;;;;;;;4.28;1.52;;;;;;;;;;5032885;28;20055;-69
2023/01/11 09:46:54;;;;;;;3.13;1.00;;;;;;;;;;5032895;28;20068;-68
2023/01/11 09:49:26;;;;;;;2.50;0.90;;;;;;;;;;5010229;28;20087;-69
2023/01/11 09:52:04;;;;;;;9.25;1.73;;;;;;;;;;5028364;28;20060;-69
2023/01/11 09:54:31;;;;;;;2.63;1.00;;;;;;;;;;5009700;28;20129;-68
2023/01/11 09:57:18;;;;;;;2.35;0.82;;;;;;;;;;5027809;28;20116;-69
2023/01/11 09:59:50;;;;;;;3.78;1.13;;;;;;;;;;5027126;28;20044;-68
2023/01/11 10:02:22;;;;;;;3.92;1.15;;;;;;;;;;5028105;28;20645;-68
2023/01/11 10:04:50;;;;;;;4.93;1.35;;;;;;;;;;5028464;28;20334;-68
2023/01/11 10:07:23;;;;;;;7.07;1.55;;;;;;;;;;5028836;28;20037;-68
2023/01/11 10:10:25;;;;;;;5.18;0.82;;;;;;;;;;5026159;28;20120;-68
2023/01/11 10:13:12;;;;;;;3.08;0.93;;;;;;;;;;4943285;28;20186;-69
2023/01/11 10:15:58;;;;;;;5.35;1.65;;;;;;;;;;5018798;28;20094;-69
2023/01/11 10:18:26;;;;;;;5.25;1.60;;;;;;;;;;5027282;28;20064;-68
2023/01/11 10:20:55;;;;;;;4.15;1.42;;;;;;;;;;5021831;28;20033;-69
2023/01/11 10:23:26;;;;;;;3.75;1.23;;;;;;;;;;5028409;28;20048;-69
2023/01/11 10:25:56;;;;;;;3.30;1.08;;;;;;;;;;5027793;28;20068;-69
2023/01/11 10:28:34;;;;;;;3.40;1.17;;;;;;;;;;5024960;28;20493;-69
2023/01/11 10:31:10;;;;;;;2.92;1.15;;;;;;;;;;5026745;28;20045;-69
2023/01/11 10:36:34;;;;;;;6.93;1.55;;;;;;;;;;5025304;28;20632;-70
2023/01/11 10:41:59;;;;;;;2.97;0.85;;;;;;;;;;5024831;28;20928;-69
2023/01/11 10:44:51;;;;;;;2.78;1.10;;;;;;;;;;5024449;28;20805;-69
2023/01/11 10:47:23;;;;;;;5.07;1.27;;;;;;;;;;5026050;28;20052;-69
2023/01/11 10:50:08;;;;;;;3.03;1.10;;;;;;;;;;5024332;28;20045;-69
2023/01/11 10:52:40;;;;;;;3.60;1.02;;;;;;;;;;5024847;28;20049;-68
2023/01/11 10:55:33;;;;;;;4.03;1.45;;;;;;;;;;5007669;28;20478;-68
2023/01/11 10:58:12;;;;;;;3.30;1.15;;;;;;;;;;5002841;28;20086;-69
2023/01/11 11:00:59;;;;;;;8.65;1.00;;;;;;;;;;5026758;28;20041;-68
2023/01/11 11:03:37;;;;;;;9.52;1.15;;;;;;;;;;5025476;28;20508;-69
2023/01/11 11:06:10;;;;;;;3.15;1.00;;;;;;;;;;5025729;28;20114;-70
2023/01/11 11:08:40;;;;;;;7.18;1.50;;;;;;;;;;5024517;28;20049;-69
2023/01/11 11:11:17;;;;;;;5.72;1.17;;;;;;;;;;5024623;28;20064;-69
2023/01/11 11:13:50;;;;;;;8.88;1.45;;;;;;;;;;5025029;28;20506;-69
2023/01/11 11:16:19;;;;;;;3.70;1.52;;;;;;;;;;5026122;28;20106;-69
2023/01/11 11:18:46;;;;;;;3.40;1.20;;;;;;;;;;5024654;28;20064;-68
2023/01/11 11:21:23;;;;;;;3.17;1.30;;;;;;;;;;5007367;28;20033;-68
2023/01/11 11:23:54;;;;;;;4.90;1.08;;;;;;;;;;5025081;28;20045;-69
2023/01/11 11:26:21;;;;;;;2.75;0.90;;;;;;;;;;5024763;28;20072;-68
2023/01/11 11:29:02;;;;;;;5.45;1.25;;;;;;;;;;5001741;28;20536;-68
2023/01/11 11:31:30;;;;;;;3.22;1.30;;;;;;;;;;5025786;28;20163;-70
2023/01/11 11:33:57;;;;;;;3.42;1.15;;;;;;;;;;4973583;28;20492;-70
2023/01/11 11:36:24;;;;;;;4.85;1.27;;;;;;;;;;4960742;28;20159;-69
2023/01/11 11:39:09;;;;;;;1.95;0.95;;;;;;;;;;4973387;28;20166;-70
2023/01/11 11:41:47;;;;;;;4.05;1.25;;;;;;;;;;4964833;28;20046;-69
2023/01/11 11:44:24;;;;;;;1.67;0.70;;;;;;;;;;4970529;28;20053;-70
2023/01/11 11:47:06;;;;;;;3.53;1.23;;;;;;;;;;4970239;28;20300;-69
2023/01/11 11:49:34;;;;;;;5.63;1.45;;;;;;;;;;4970090;28;20046;-67
2023/01/11 11:52:02;;;;;;;5.63;1.15;;;;;;;;;;4957549;28;20043;-68
2023/01/11 11:54:31;;;;;;;3.28;1.17;;;;;;;;;;4957002;28;20701;-66
2023/01/11 11:56:59;;;;;;;9.63;1.30;;;;;;;;;;4970648;28;20038;-67
2023/01/11 11:59:28;;;;;;;9.77;2.17;;;;;;;;;;4968414;28;20039;-67
2023/01/11 12:01:57;;;;;;;7.68;1.98;;;;;;;;;;4971867;28;20050;-68
2023/01/11 12:04:48;;;;;;;6.45;1.83;;;;;;;;;;4962225;28;20042;-68
2023/01/11 12:07:17;;;;;;;7.90;1.83;;;;;;;;;;4974407;28;20034;-71
2023/01/11 12:09:48;;;;;;;3.30;1.25;;;;;;;;;;4969603;28;21088;-67
2023/01/11 12:12:17;;;;;;;3.47;1.05;;;;;;;;;;4999885;28;20491;-66
2023/01/11 12:14:44;;;;;;;2.33;0.90;;;;;;;;;;5026099;28;20489;-67
2023/01/11 12:17:24;;;;;;;4.07;1.42;;;;;;;;;;5025464;28;20037;-67
2023/01/11 12:19:51;;;;;;;3.42;1.15;;;;;;;;;;5004789;28;20045;-67
2023/01/11 12:22:24;;;;;;;4.72;1.38;;;;;;;;;;5011653;28;20061;-67
2023/01/11 12:25:02;;;;;;;9.90;1.60;;;;;;;;;;5015692;28;20438;-67
2023/01/11 12:27:47;;;;;;;3.55;1.20;;;;;;;;;;5022587;28;20309;-66
2023/01/11 12:30:32;;;;;;;4.25;1.10;;;;;;;;;;5026195;28;20415;-68
2023/01/11 12:33:13;;;;;;;4.97;1.42;;;;;;;;;;5024287;28;20076;-68
2023/01/11 12:35:55;;;;;;;3.17;1.27;;;;;;;;;;5024132;28;20406;-66
2023/01/11 12:38:29;;;;;;;6.80;1.48;;;;;;;;;;5005115;28;20048;-68
2023/01/11 12:41:00;;;;;;;2.97;1.20;;;;;;;;;;5021975;28;20050;-67
2023/01/11 12:43:34;;;;;;;3.22;1.17;;;;;;;;;;5023816;28;20045;-67
2023/01/11 12:46:19;;;;;;;7.75;1.23;;;;;;;;;;5024484;28;20087;-67
2023/01/11 12:49:03;;;;;;;3.65;1.27;;;;;;;;;;5021324;28;20041;-68
2023/01/11 12:51:42;;;;;;;3.45;1.27;;;;;;;;;;5023755;28;20049;-67
2023/01/11 12:54:17;;;;;;;4.82;1.75;;;;;;;;;;5022348;28;20041;-68
2023/01/11 12:56:50;;;;;;;1.90;0.80;;;;;;;;;;5021062;28;20598;-67
2023/01/11 12:59:35;;;;;;;4.47;1.80;;;;;;;;;;5023159;28;20428;-68
2023/01/11 13:02:18;;;;;;;3.72;1.48;;;;;;;;;;5026058;28;20156;-69
2023/01/11 13:05:03;;;;;;;5.07;1.50;;;;;;;;;;5027237;28;20072;-69
2023/01/11 13:07:30;;;;;;;12.68;1.30;;;;;;;;;;5024106;28;20242;-71
2023/01/11 13:10:02;;;;;;;7.05;1.58;;;;;;;;;;5026071;28;20155;-69
2023/01/11 13:12:48;;;;;;;4.60;1.30;;;;;;;;;;4991975;28;20053;-68
2023/01/11 13:15:15;;;;;;;2.72;1.25;;;;;;;;;;5026343;28;20360;-69
2023/01/11 13:17:51;;;;;;;3.75;1.45;;;;;;;;;;5025206;28;20033;-69
2023/01/11 13:20:29;;;;;;;3.22;1.30;;;;;;;;;;5026118;28;20480;-70
2023/01/11 13:22:59;;;;;;;12.82;1.77;;;;;;;;;;5028769;28;20110;-69
2023/01/11 13:25:28;;;;;;;5.22;1.45;;;;;;;;;;5026301;28;20528;-70
2023/01/11 13:27:57;;;;;;;7.50;1.75;;;;;;;;;;5027706;28;20538;-68
2023/01/11 13:30:24;;;;;;;4.00;1.88;;;;;;;;;;5026106;28;20552;-69
2023/01/11 13:32:56;;;;;;;4.90;1.63;;;;;;;;;;5008911;28;20052;-69
2023/01/11 13:35:43;;;;;;;4.95;1.40;;;;;;;;;;5027804;28;20167;-69
2023/01/11 13:38:15;;;;;;;16.77;2.42;;;;;;;;;;5018318;28;20122;-69
2023/01/11 13:40:49;;;;;;;2.95;1.27;;;;;;;;;;5008561;28;20140;-70
2023/01/11 13:43:17;;;;;;;3.20;1.20;;;;;;;;;;5026668;28;20045;-70
2023/01/11 13:45:48;;;;;;;12.07;1.73;;;;;;;;;;5025294;28;20041;-69
2023/01/11 13:48:40;;;;;;;4.85;1.75;;;;;;;;;;5027436;28;20037;-71
2023/01/11 13:51:27;;;;;;;2.72;0.95;;;;;;;;;;5024155;28;20048;-70
2023/01/11 13:53:57;;;;;;;6.70;1.58;;;;;;;;;;5016074;28;20131;-69
2023/01/11 13:56:36;;;;;;;7.00;2.08;;;;;;;;;;5025454;28;20044;-69
2023/01/11 13:59:11;;;;;;;5.15;2.25;;;;;;;;;;5028154;28;20052;-68
2023/01/11 14:01:56;;;;;;;4.35;1.75;;;;;;;;;;5022516;28;20788;-69
2023/01/11 14:04:28;;;;;;;4.47;1.58;;;;;;;;;;5017690;28;20048;-70
2023/01/11 14:06:55;;;;;;;4.68;1.83;;;;;;;;;;5025708;28;20048;-70
2023/01/11 14:09:22;;;;;;;18.55;1.88;;;;;;;;;;5007703;28;20041;-69
2023/01/11 14:12:03;;;;;;;5.78;1.60;;;;;;;;;;5025857;28;22232;-69
2023/01/11 14:14:39;;;;;;;8.07;1.95;;;;;;;;;;5018811;28;20065;-69
2023/01/11 14:17:22;;;;;;;4.28;1.67;;;;;;;;;;5026760;28;20600;-72
2023/01/11 14:20:12;;;;;;;4.97;2.10;;;;;;;;;;5025793;28;20606;-69
2023/01/11 14:22:51;;;;;;;6.63;1.90;;;;;;;;;;4983277;28;20044;-69
2023/01/11 14:25:24;;;;;;;11.98;2.15;;;;;;;;;;5007873;28;20048;-70
2023/01/11 14:28:07;;;;;;;6.90;2.10;;;;;;;;;;5027006;28;20040;-69
2023/01/11 14:30:37;;;;;;;3.03;1.17;;;;;;;;;;5007747;28;20097;-69
2023/01/11 14:33:22;;;;;;;5.45;1.77;;;;;;;;;;5025254;28;20057;-68
2023/01/11 14:36:07;;;;;;;4.55;1.42;;;;;;;;;;5025708;28;20045;-68
2023/01/11 14:38:51;;;;;;;7.38;1.45;;;;;;;;;;5024641;28;20041;-71
2023/01/11 14:41:38;;;;;;;6.47;1.70;;;;;;;;;;5025841;28;20543;-69
2023/01/11 14:44:05;;;;;;;8.52;2.97;;;;;;;;;;4982463;28;20763;-69
2023/01/11 14:46:52;;;;;;;11.30;5.05;;;;;;;;;;5006547;28;20029;-70
2023/01/11 14:49:23;;;;;;;7.85;3.72;;;;;;;;;;5023738;28;20518;-70
2023/01/11 14:51:54;;;;;;;6.47;3.13;;;;;;;;;;5026122;28;20057;-69
2023/01/11 14:54:24;;;;;;;5.47;2.55;;;;;;;;;;5020729;28;20088;-69
2023/01/11 14:56:57;;;;;;;7.32;2.72;;;;;;;;;;5026236;28;20048;-70
2023/01/11 14:59:26;;;;;;;7.25;2.67;;;;;;;;;;5007035;28;20124;-70
2023/01/11 15:02:05;;;;;;;8.45;3.55;;;;;;;;;;5012621;28;20085;-70
2023/01/11 15:04:36;;;;;;;6.43;2.15;;;;;;;;;;5002577;28;20497;-71
2023/01/11 15:07:22;;;;;;;11.38;3.60;;;;;;;;;;5024272;28;20524;-71
2023/01/11 15:09:50;;;;;;;11.93;3.55;;;;;;;;;;5016918;28;20112;-70
2023/01/11 15:12:18;;;;;;;8.55;2.75;;;;;;;;;;5005723;28;20493;-70
2023/01/11 15:15:17;;;;;;;12.07;3.78;;;;;;;;;;5025084;28;20092;-70
2023/01/11 15:20:29;;;;;;;11.43;2.67;;;;;;;;;;5026027;28;20164;-70
2023/01/11 15:23:03;;;;;;;6.35;2.67;;;;;;;;;;5026220;28;20056;-69
2023/01/11 15:25:31;;;;;;;7.28;2.50;;;;;;;;;;5025201;28;20037;-70
2023/01/11 15:28:00;;;;;;;9.13;3.17;;;;;;;;;;5026159;28;20057;-71
2023/01/11 15:30:35;;;;;;;7.38;2.50;;;;;;;;;;5020841;28;20037;-69
2023/01/11 15:33:17;;;;;;;6.80;2.10;;;;;;;;;;5005784;28;20144;-69